Time,TemperatureF,DewpointF,PressureIn,WindDirection,WindDirectionDegrees,WindSpeedMPH,WindSpeedGustMPH,Humidity,HourlyPrecipIn,Conditions,Clouds,dailyrainin,SoftwareType,DateUTC
2013-03-02 00:00:00,25.5,22.8,29.97,NW,325,12.0,15.0,89,0.00,,,0.00,meteohub,2013-03-02 05:00:00,
2013-03-02 00:01:00,25.5,22.8,29.97,NNW,344,9.0,15.0,89,0.00,,,0.00,meteohub,2013-03-02 05:01:00,
2013-03-02 00:07:00,25.5,22.8,29.97,NNW,332,13.0,14.0,89,0.00,,,0.00,meteohub,2013-03-02 05:07:00,
2013-03-02 00:12:00,25.9,23.4,29.97,NW,325,10.0,15.0,90,0.00,,,0.00,meteohub,2013-03-02 05:12:00,
2013-03-02 00:17:00,25.5,23.0,29.97,NNW,338,12.0,15.0,90,0.00,,,0.00,meteohub,2013-03-02 05:17:00,
2013-03-02 00:22:00,25.7,23.2,29.97,NNW,339,10.0,15.0,90,0.00,,,0.00,meteohub,2013-03-02 05:22:00,
2013-03-02 00:27:00,25.7,23.2,29.96,NNW,330,10.0,14.0,90,0.00,,,0.00,meteohub,2013-03-02 05:27:00,
2013-03-02 00:32:00,25.7,23.2,29.97,NNW,342,12.0,14.0,90,0.00,,,0.00,meteohub,2013-03-02 05:32:00,
2013-03-02 00:37:00,25.7,23.2,29.97,NNW,341,11.0,14.0,90,0.00,,,0.00,meteohub,2013-03-02 05:37:00,
2013-03-02 00:42:00,25.7,23.0,29.97,North,355,12.0,14.0,89,0.00,,,0.00,meteohub,2013-03-02 05:42:00,
2013-03-02 00:47:00,25.7,23.2,29.97,NNW,348,9.0,14.0,90,0.00,,,0.00,meteohub,2013-03-02 05:47:00,
2013-03-02 00:52:00,25.7,23.2,29.96,NNW,345,10.0,14.0,90,0.00,,,0.00,meteohub,2013-03-02 05:52:00,
2013-03-02 00:57:00,25.9,23.4,29.96,North,349,12.0,14.0,90,0.00,,,0.00,meteohub,2013-03-02 05:57:00,
2013-03-02 01:02:00,25.7,23.0,29.96,North,355,9.0,14.0,89,0.00,,,0.00,meteohub,2013-03-02 06:02:00,
2013-03-02 01:07:00,25.7,23.0,29.96,NNW,342,7.0,14.0,89,0.00,,,0.00,meteohub,2013-03-02 06:07:00,
2013-03-02 01:12:00,25.7,23.0,29.96,NNW,346,5.0,14.0,89,0.00,,,0.00,meteohub,2013-03-02 06:12:00,
2013-03-02 01:17:00,25.7,23.0,29.96,North,355,10.0,12.0,89,0.00,,,0.00,meteohub,2013-03-02 06:17:00,
2013-03-02 01:22:00,25.7,23.0,29.96,North,355,12.0,12.0,89,0.00,,,0.00,meteohub,2013-03-02 06:22:00,
2013-03-02 01:27:00,25.5,22.8,29.96,NNW,329,11.0,13.0,89,0.00,,,0.00,meteohub,2013-03-02 06:27:00,
2013-03-02 01:32:00,25.5,22.8,29.96,NNW,337,10.0,13.0,89,0.00,,,0.00,meteohub,2013-03-02 06:32:00,
2013-03-02 01:37:00,25.5,22.8,29.96,NW,323,11.0,14.0,89,0.00,,,0.00,meteohub,2013-03-02 06:37:00,
2013-03-02 01:42:00,25.5,22.8,29.96,NW,325,9.0,14.0,89,0.00,,,0.00,meteohub,2013-03-02 06:42:00,
2013-03-02 01:47:00,25.7,23.0,29.96,NW,325,10.0,14.0,89,0.00,,,0.00,meteohub,2013-03-02 06:47:00,
2013-03-02 01:52:00,25.5,22.8,29.96,NW,320,10.0,13.0,89,0.00,,,0.00,meteohub,2013-03-02 06:52:00,
2013-03-02 01:57:00,25.5,22.8,29.96,NNW,331,7.0,12.0,89,0.00,,,0.00,meteohub,2013-03-02 06:57:00,
2013-03-02 02:02:00,25.5,22.5,29.96,NNW,327,11.0,12.0,88,0.00,,,0.00,meteohub,2013-03-02 07:02:00,
2013-03-02 02:08:00,25.5,22.5,29.96,NNW,333,10.0,12.0,88,0.00,,,0.00,meteohub,2013-03-02 07:08:00,
2013-03-02 02:13:00,25.5,22.5,29.96,NNW,338,10.0,12.0,88,0.00,,,0.00,meteohub,2013-03-02 07:13:00,
2013-03-02 02:18:00,25.3,22.1,29.96,NNW,346,10.0,12.0,87,0.00,,,0.00,meteohub,2013-03-02 07:18:00,
2013-03-02 02:23:00,25.5,22.3,29.96,NW,314,6.0,12.0,87,0.00,,,0.00,meteohub,2013-03-02 07:23:00,
2013-03-02 02:28:00,25.5,22.3,29.96,NW,321,8.0,12.0,87,0.00,,,0.00,meteohub,2013-03-02 07:28:00,
2013-03-02 02:33:00,25.5,22.3,29.96,NW,322,9.0,12.0,87,0.00,,,0.00,meteohub,2013-03-02 07:33:00,
2013-03-02 02:38:00,25.3,22.1,29.96,NW,304,7.0,11.0,87,0.00,,,0.00,meteohub,2013-03-02 07:38:00,
2013-03-02 02:43:00,25.3,22.1,29.95,WNW,302,6.0,11.0,87,0.00,,,0.00,meteohub,2013-03-02 07:43:00,
2013-03-02 02:48:00,25.3,22.1,29.95,NNW,327,11.0,11.0,87,0.00,,,0.00,meteohub,2013-03-02 07:48:00,
2013-03-02 02:53:00,25.3,22.1,29.95,NNW,348,15.0,15.0,87,0.00,,,0.00,meteohub,2013-03-02 07:53:00,
2013-03-02 02:58:00,25.3,22.1,29.95,NNW,345,10.0,13.0,87,0.00,,,0.00,meteohub,2013-03-02 07:58:00,
2013-03-02 03:03:00,25.2,21.6,29.95,NNW,342,0.0,16.0,86,0.00,,,0.00,meteohub,2013-03-02 08:03:00,
2013-03-02 03:08:00,25.2,21.6,29.95,NW,315,9.0,16.0,86,0.00,,,0.00,meteohub,2013-03-02 08:08:00,
2013-03-02 03:13:00,25.2,21.9,29.95,WNW,301,5.0,14.0,87,0.00,,,0.00,meteohub,2013-03-02 08:13:00,
2013-03-02 03:18:00,25.3,22.1,29.95,WNW,299,6.0,10.0,87,0.00,,,0.00,meteohub,2013-03-02 08:18:00,
2013-03-02 03:23:00,25.2,21.9,29.95,WNW,300,0.0,10.0,87,0.00,,,0.00,meteohub,2013-03-02 08:23:00,
2013-03-02 03:28:00,25.3,22.1,29.95,North,11,4.0,9.0,87,0.00,,,0.00,meteohub,2013-03-02 08:28:00,
2013-03-02 03:34:00,25.3,22.1,29.95,NNE,21,6.0,11.0,87,0.00,,,0.00,meteohub,2013-03-02 08:34:00,
2013-03-02 03:39:00,25.3,22.1,29.95,NNE,21,2.0,11.0,87,0.00,,,0.00,meteohub,2013-03-02 08:39:00,
2013-03-02 03:44:00,25.3,22.1,29.95,North,5,2.0,11.0,87,0.00,,,0.00,meteohub,2013-03-02 08:44:00,
2013-03-02 03:49:00,25.5,22.3,29.95,North,0,1.0,7.0,87,0.00,,,0.00,meteohub,2013-03-02 08:49:00,
2013-03-02 03:54:00,25.5,22.3,29.95,North,0,5.0,6.0,87,0.00,,,0.00,meteohub,2013-03-02 08:54:00,
2013-03-02 03:59:00,25.3,22.1,29.95,NNE,14,2.0,6.0,87,0.00,,,0.00,meteohub,2013-03-02 08:59:00,
2013-03-02 04:04:00,25.5,22.3,29.95,North,355,2.0,7.0,87,0.00,,,0.00,meteohub,2013-03-02 09:04:00,
2013-03-02 04:09:00,25.5,22.3,29.94,North,355,4.0,7.0,87,0.00,,,0.00,meteohub,2013-03-02 09:09:00,
2013-03-02 04:14:00,25.5,22.5,29.94,North,350,6.0,7.0,88,0.00,,,0.00,meteohub,2013-03-02 09:14:00,
2013-03-02 04:19:00,25.5,22.5,29.94,North,350,9.0,9.0,88,0.00,,,0.00,meteohub,2013-03-02 09:19:00,
2013-03-02 04:24:00,25.5,22.5,29.94,NW,326,10.0,13.0,88,0.00,,,0.00,meteohub,2013-03-02 09:24:00,
2013-03-02 04:29:00,25.5,22.5,29.95,NNW,331,11.0,14.0,88,0.00,,,0.00,meteohub,2013-03-02 09:29:00,
2013-03-02 04:34:00,25.3,22.3,29.94,NNW,330,10.0,14.0,88,0.00,,,0.00,meteohub,2013-03-02 09:34:00,
2013-03-02 04:39:00,25.3,22.3,29.95,NNW,338,8.0,14.0,88,0.00,,,0.00,meteohub,2013-03-02 09:39:00,
2013-03-02 04:45:00,25.3,22.3,29.95,NNW,339,4.0,13.0,88,0.00,,,0.00,meteohub,2013-03-02 09:45:00,
2013-03-02 04:50:00,25.3,22.3,29.94,NW,324,6.0,13.0,88,0.00,,,0.00,meteohub,2013-03-02 09:50:00,
2013-03-02 04:55:00,25.3,22.3,29.95,NNW,346,6.0,13.0,88,0.00,,,0.00,meteohub,2013-03-02 09:55:00,
2013-03-02 05:00:00,25.3,22.3,29.94,NW,318,9.0,10.0,88,0.00,,,0.00,meteohub,2013-03-02 10:00:00,
2013-03-02 05:05:00,25.3,22.3,29.94,NNW,327,5.0,11.0,88,0.00,,,0.00,meteohub,2013-03-02 10:05:00,
2013-03-02 05:10:00,25.3,22.3,29.94,NW,323,11.0,12.0,88,0.00,,,0.00,meteohub,2013-03-02 10:10:00,
2013-03-02 05:15:00,25.3,22.3,29.94,NW,323,12.0,13.0,88,0.00,,,0.00,meteohub,2013-03-02 10:15:00,
2013-03-02 05:20:00,25.2,22.1,29.94,NNW,334,11.0,15.0,88,0.00,,,0.00,meteohub,2013-03-02 10:20:00,
2013-03-02 05:25:00,25.2,22.5,29.94,NNW,336,9.0,15.0,89,0.00,,,0.00,meteohub,2013-03-02 10:25:00,
2013-03-02 05:30:00,25.2,22.5,29.94,NNW,340,13.0,14.0,89,0.00,,,0.00,meteohub,2013-03-02 10:30:00,
2013-03-02 05:35:00,25.2,22.5,29.94,NNW,338,12.0,14.0,89,0.00,,,0.00,meteohub,2013-03-02 10:35:00,
2013-03-02 05:40:00,25.2,22.5,29.95,NNW,343,15.0,15.0,89,0.00,,,0.00,meteohub,2013-03-02 10:40:00,
2013-03-02 05:45:00,25.2,22.5,29.94,NNW,344,13.0,15.0,89,0.00,,,0.00,meteohub,2013-03-02 10:45:00,
2013-03-02 05:51:00,25.0,22.3,29.94,North,5,13.0,15.0,89,0.00,,,0.00,meteohub,2013-03-02 10:51:00,
2013-03-02 05:56:00,25.0,22.3,29.94,North,355,12.0,15.0,89,0.00,,,0.00,meteohub,2013-03-02 10:56:00,
2013-03-02 06:01:00,25.0,22.3,29.94,North,5,13.0,15.0,89,0.00,,,0.00,meteohub,2013-03-02 11:01:00,
2013-03-02 06:06:00,25.0,22.3,29.94,North,349,10.0,15.0,89,0.00,,,0.00,meteohub,2013-03-02 11:06:00,
2013-03-02 06:11:00,25.0,22.3,29.95,North,355,9.0,14.0,89,0.00,,,0.00,meteohub,2013-03-02 11:11:00,
2013-03-02 06:16:00,24.8,22.1,29.95,North,355,10.0,14.0,89,0.00,,,0.00,meteohub,2013-03-02 11:16:00,
2013-03-02 06:21:00,24.8,22.1,29.95,North,355,12.0,14.0,89,0.00,,,0.00,meteohub,2013-03-02 11:21:00,
2013-03-02 06:26:00,24.8,21.7,29.95,NNW,340,7.0,14.0,88,0.00,,,0.00,meteohub,2013-03-02 11:26:00,
2013-03-02 06:31:00,24.6,21.6,29.95,NNW,338,11.0,14.0,88,0.00,,,0.00,meteohub,2013-03-02 11:31:00,
2013-03-02 06:36:00,24.6,21.6,29.96,North,355,6.0,14.0,88,0.00,,,0.00,meteohub,2013-03-02 11:36:00,
2013-03-02 06:41:00,24.6,21.6,29.96,NW,325,15.0,15.0,88,0.00,,,0.00,meteohub,2013-03-02 11:41:00,
2013-03-02 06:46:00,24.4,21.4,29.96,NW,315,11.0,16.0,88,0.00,,,0.00,meteohub,2013-03-02 11:46:00,
2013-03-02 06:51:00,24.3,21.2,29.96,NW,307,12.0,16.0,88,0.00,,,0.00,meteohub,2013-03-02 11:51:00,
2013-03-02 06:57:00,24.3,21.6,29.96,NW,313,12.0,16.0,89,0.00,,,0.00,meteohub,2013-03-02 11:57:00,
2013-03-02 07:02:00,24.3,21.6,29.96,NNW,332,10.0,14.0,89,0.00,,,0.00,meteohub,2013-03-02 12:02:00,
2013-03-02 07:07:00,24.3,21.6,29.96,WNW,301,12.0,14.0,89,0.00,,,0.00,meteohub,2013-03-02 12:07:00,
2013-03-02 07:12:00,24.3,21.6,29.96,NW,320,5.0,14.0,89,0.00,,,0.00,meteohub,2013-03-02 12:12:00,
2013-03-02 07:17:00,24.4,21.7,29.96,NNW,347,11.0,14.0,89,0.00,,,0.00,meteohub,2013-03-02 12:17:00,
2013-03-02 07:22:00,24.3,21.6,29.96,NNW,347,14.0,14.0,89,0.00,,,0.00,meteohub,2013-03-02 12:22:00,
2013-03-02 07:27:00,24.3,21.6,29.96,North,355,16.0,17.0,89,0.00,,,0.00,meteohub,2013-03-02 12:27:00,
2013-03-02 07:32:00,24.1,21.4,29.96,NW,325,11.0,17.0,89,0.00,,,0.00,meteohub,2013-03-02 12:32:00,
2013-03-02 07:37:00,24.1,21.4,29.96,NNW,336,10.0,17.0,89,0.00,,,0.00,meteohub,2013-03-02 12:37:00,
2013-03-02 07:42:00,24.1,21.4,29.96,NNW,336,12.0,17.0,89,0.00,,,0.00,meteohub,2013-03-02 12:42:00,
2013-03-02 07:47:00,24.1,21.4,29.97,NNW,329,11.0,14.0,89,0.00,,,0.00,meteohub,2013-03-02 12:47:00,
2013-03-02 07:52:00,23.9,21.2,29.97,NW,323,11.0,16.0,89,0.00,,,0.00,meteohub,2013-03-02 12:52:00,
2013-03-02 07:57:00,23.9,21.2,29.96,NW,317,10.0,16.0,89,0.00,,,0.00,meteohub,2013-03-02 12:57:00,
2013-03-02 08:02:00,24.1,21.4,29.97,NNW,330,10.0,16.0,89,0.00,,,0.00,meteohub,2013-03-02 13:02:00,
2013-03-02 08:07:00,23.9,21.2,29.97,NW,325,12.0,14.0,89,0.00,,,0.00,meteohub,2013-03-02 13:07:00,
2013-03-02 08:12:00,23.9,21.2,29.96,NNW,338,7.0,14.0,89,0.00,,,0.00,meteohub,2013-03-02 13:12:00,
2013-03-02 08:17:00,23.9,21.4,29.97,NNW,348,10.0,14.0,90,0.00,,,0.00,meteohub,2013-03-02 13:17:00,
2013-03-02 08:22:00,23.9,21.4,29.97,NNW,346,6.0,13.0,90,0.00,,,0.00,meteohub,2013-03-02 13:22:00,
2013-03-02 08:27:00,23.7,21.2,29.97,NNW,346,11.0,12.0,90,0.00,,,0.00,meteohub,2013-03-02 13:27:00,
2013-03-02 08:32:00,23.7,21.2,29.97,North,355,9.0,14.0,90,0.00,,,0.00,meteohub,2013-03-02 13:32:00,
2013-03-02 08:37:00,23.7,21.2,29.97,NNE,13,10.0,14.0,90,0.00,,,0.00,meteohub,2013-03-02 13:37:00,
2013-03-02 08:42:00,23.5,21.0,29.96,North,5,15.0,16.0,90,0.00,,,0.00,meteohub,2013-03-02 13:42:00,
2013-03-02 08:47:00,23.4,20.8,29.97,North,355,13.0,18.0,90,0.00,,,0.00,meteohub,2013-03-02 13:47:00,
2013-03-02 08:52:00,23.4,21.2,29.96,North,5,13.0,18.0,91,0.00,,,0.00,meteohub,2013-03-02 13:52:00,
2013-03-02 08:57:00,23.2,21.0,29.96,North,9,15.0,18.0,91,0.00,,,0.00,meteohub,2013-03-02 13:57:00,
2013-03-02 09:02:00,23.0,20.8,29.96,North,355,15.0,16.0,91,0.00,,,0.00,meteohub,2013-03-02 14:02:00,
2013-03-02 09:07:00,22.8,20.7,29.96,North,9,15.0,17.0,91,0.00,,,0.00,meteohub,2013-03-02 14:07:00,
2013-03-02 09:12:00,22.6,20.5,29.96,NNE,13,16.0,20.0,91,0.00,,,0.00,meteohub,2013-03-02 14:12:00,
2013-03-02 09:17:00,22.5,20.3,29.96,North,5,13.0,20.0,91,0.00,,,0.00,meteohub,2013-03-02 14:17:00,
2013-03-02 09:22:00,22.6,20.5,29.96,North,355,14.0,20.0,91,0.00,,,0.00,meteohub,2013-03-02 14:22:00,
2013-03-02 09:27:00,22.6,20.5,29.97,North,10,14.0,20.0,91,0.00,,,0.00,meteohub,2013-03-02 14:27:00,
2013-03-02 09:32:00,22.6,20.5,29.97,North,5,11.0,18.0,91,0.00,,,0.00,meteohub,2013-03-02 14:32:00,
2013-03-02 09:37:00,22.6,20.1,29.97,NNE,22,12.0,16.0,90,0.00,,,0.00,meteohub,2013-03-02 14:37:00,
2013-03-02 09:42:00,22.6,20.1,29.97,North,355,11.0,16.0,90,0.00,,,0.00,meteohub,2013-03-02 14:42:00,
2013-03-02 09:47:00,22.6,20.1,29.97,North,9,11.0,15.0,90,0.00,,,0.00,meteohub,2013-03-02 14:47:00,
2013-03-02 09:52:00,22.8,20.3,29.97,North,5,12.0,14.0,90,0.00,,,0.00,meteohub,2013-03-02 14:52:00,
2013-03-02 09:57:00,22.6,20.5,29.97,NNW,340,10.0,15.0,91,0.00,,,0.00,meteohub,2013-03-02 14:57:00,
2013-03-02 10:02:00,22.6,20.1,29.97,North,349,13.0,15.0,90,0.00,,,0.00,meteohub,2013-03-02 15:02:00,
2013-03-02 10:07:00,22.6,20.1,29.97,North,355,11.0,15.0,90,0.00,,,0.00,meteohub,2013-03-02 15:07:00,
2013-03-02 10:12:00,22.5,19.9,29.97,NNW,344,12.0,14.0,90,0.00,,,0.00,meteohub,2013-03-02 15:12:00,
2013-03-02 10:17:00,22.6,20.1,29.97,NNW,342,10.0,14.0,90,0.00,,,0.00,meteohub,2013-03-02 15:17:00,
2013-03-02 10:22:00,22.6,20.5,29.97,North,355,9.0,14.0,91,0.00,,,0.00,meteohub,2013-03-02 15:22:00,
2013-03-02 10:27:00,22.6,20.5,29.97,North,355,11.0,14.0,91,0.00,,,0.00,meteohub,2013-03-02 15:27:00,
2013-03-02 10:32:00,22.6,20.5,29.97,North,355,7.0,13.0,91,0.00,,,0.00,meteohub,2013-03-02 15:32:00,
2013-03-02 10:37:00,22.5,19.9,29.97,North,355,9.0,12.0,90,0.00,,,0.00,meteohub,2013-03-02 15:37:00,
2013-03-02 10:42:00,22.6,20.1,29.97,NNW,343,10.0,12.0,90,0.00,,,0.00,meteohub,2013-03-02 15:42:00,
2013-03-02 10:47:00,22.5,19.9,29.97,NNW,330,7.0,12.0,90,0.00,,,0.00,meteohub,2013-03-02 15:47:00,
2013-03-02 10:52:00,22.6,20.1,29.97,NNW,346,10.0,12.0,90,0.00,,,0.00,meteohub,2013-03-02 15:52:00,
2013-03-02 10:57:00,22.6,20.5,29.97,North,350,6.0,12.0,91,0.00,,,0.00,meteohub,2013-03-02 15:57:00,
2013-03-02 11:02:00,22.6,20.5,29.97,NNW,336,11.0,14.0,91,0.00,,,0.00,meteohub,2013-03-02 16:02:00,
2013-03-02 11:07:00,22.5,19.9,29.97,NNW,328,11.0,14.0,90,0.00,,,0.00,meteohub,2013-03-02 16:07:00,
2013-03-02 11:12:00,22.5,20.3,29.97,NNW,346,11.0,13.0,91,0.00,,,0.00,meteohub,2013-03-02 16:12:00,
2013-03-02 11:17:00,22.6,20.5,29.97,NNW,333,12.0,13.0,91,0.00,,,0.00,meteohub,2013-03-02 16:17:00,
2013-03-02 11:22:00,22.5,20.3,29.97,NNW,341,10.0,14.0,91,0.00,,,0.00,meteohub,2013-03-02 16:22:00,
2013-03-02 11:27:00,22.6,20.1,29.97,NNW,348,11.0,14.0,90,0.00,,,0.00,meteohub,2013-03-02 16:27:00,
2013-03-02 11:32:00,22.6,20.5,29.97,NNW,339,9.0,14.0,91,0.00,,,0.00,meteohub,2013-03-02 16:32:00,
2013-03-02 11:37:00,22.6,20.5,29.97,NNW,328,12.0,12.0,91,0.00,,,0.00,meteohub,2013-03-02 16:37:00,
2013-03-02 11:42:00,22.6,20.5,29.97,NW,325,12.0,12.0,91,0.00,,,0.00,meteohub,2013-03-02 16:42:00,
2013-03-02 11:47:00,22.5,20.3,29.97,NW,310,9.0,13.0,91,0.00,,,0.00,meteohub,2013-03-02 16:47:00,
2013-03-02 11:52:00,22.6,20.5,29.97,NNW,331,10.0,13.0,91,0.00,,,0.00,meteohub,2013-03-02 16:52:00,
2013-03-02 11:57:00,22.6,20.5,29.97,NW,323,10.0,13.0,91,0.00,,,0.00,meteohub,2013-03-02 16:57:00,
2013-03-02 12:02:00,22.6,20.5,29.97,NW,324,9.0,12.0,91,0.00,,,0.00,meteohub,2013-03-02 17:02:00,
2013-03-02 12:07:00,22.6,20.5,29.97,NW,322,9.0,12.0,91,0.00,,,0.00,meteohub,2013-03-02 17:07:00,
2013-03-02 12:12:00,22.6,20.5,29.97,NW,325,11.0,13.0,91,0.00,,,0.00,meteohub,2013-03-02 17:12:00,
2013-03-02 12:17:00,22.6,20.5,29.97,WNW,303,9.0,13.0,91,0.00,,,0.00,meteohub,2013-03-02 17:17:00,
2013-03-02 12:22:00,22.8,20.7,29.96,NW,310,9.0,13.0,91,0.00,,,0.00,meteohub,2013-03-02 17:22:00,
2013-03-02 12:27:00,22.6,20.5,29.96,NW,314,5.0,12.0,91,0.00,,,0.00,meteohub,2013-03-02 17:27:00,
2013-03-02 12:32:00,22.6,20.1,29.97,WNW,302,5.0,10.0,90,0.00,,,0.00,meteohub,2013-03-02 17:32:00,
2013-03-02 12:37:00,22.6,20.1,29.96,NW,312,4.0,10.0,90,0.00,,,0.00,meteohub,2013-03-02 17:37:00,
2013-03-02 12:42:00,22.6,20.5,29.96,NW,319,9.0,11.0,91,0.00,,,0.00,meteohub,2013-03-02 17:42:00,
2013-03-02 12:47:00,22.6,20.1,29.96,NNW,340,9.0,12.0,90,0.00,,,0.00,meteohub,2013-03-02 17:47:00,
2013-03-02 12:52:00,22.6,20.1,29.96,NW,316,11.0,12.0,90,0.00,,,0.00,meteohub,2013-03-02 17:52:00,
2013-03-02 12:57:00,22.6,20.1,29.96,NNW,341,10.0,12.0,90,0.00,,,0.00,meteohub,2013-03-02 17:57:00,
2013-03-02 13:02:00,22.6,20.1,29.96,NW,320,8.0,12.0,90,0.00,,,0.00,meteohub,2013-03-02 18:02:00,
2013-03-02 13:07:00,22.8,20.3,29.96,NW,321,7.0,12.0,90,0.00,,,0.00,meteohub,2013-03-02 18:07:00,
2013-03-02 13:12:00,22.6,20.1,29.96,NW,323,8.0,11.0,90,0.00,,,0.00,meteohub,2013-03-02 18:12:00,
2013-03-02 13:17:00,22.6,20.1,29.95,NW,320,8.0,11.0,90,0.00,,,0.00,meteohub,2013-03-02 18:17:00,
2013-03-02 13:22:00,22.6,20.1,29.95,NNW,343,7.0,11.0,90,0.00,,,0.00,meteohub,2013-03-02 18:22:00,
2013-03-02 13:27:00,22.6,20.1,29.95,NW,311,8.0,11.0,90,0.00,,,0.00,meteohub,2013-03-02 18:27:00,
2013-03-02 13:32:00,22.8,20.3,29.95,NW,316,6.0,11.0,90,0.00,,,0.00,meteohub,2013-03-02 18:32:00,
2013-03-02 13:37:00,22.8,20.3,29.95,NW,304,7.0,11.0,90,0.00,,,0.00,meteohub,2013-03-02 18:37:00,
2013-03-02 13:42:00,22.8,20.3,29.95,NW,307,8.0,11.0,90,0.00,,,0.00,meteohub,2013-03-02 18:42:00,
2013-03-02 13:47:00,22.8,20.1,29.95,NW,312,8.0,11.0,89,0.00,,,0.00,meteohub,2013-03-02 18:47:00,
2013-03-02 13:52:00,22.8,20.1,29.95,NW,313,6.0,11.0,89,0.00,,,0.00,meteohub,2013-03-02 18:52:00,
2013-03-02 13:57:00,22.8,20.1,29.95,NW,304,6.0,10.0,89,0.00,,,0.00,meteohub,2013-03-02 18:57:00,
2013-03-02 14:02:00,23.0,20.3,29.95,NW,304,6.0,10.0,89,0.00,,,0.00,meteohub,2013-03-02 19:02:00,
2013-03-02 14:07:00,23.0,20.3,29.94,NW,306,5.0,10.0,89,0.00,,,0.00,meteohub,2013-03-02 19:07:00,
2013-03-02 14:12:00,23.2,20.5,29.95,WNW,298,6.0,10.0,89,0.00,,,0.00,meteohub,2013-03-02 19:12:00,
2013-03-02 14:17:00,23.2,20.5,29.94,WNW,295,6.0,11.0,89,0.00,,,0.00,meteohub,2013-03-02 19:17:00,
2013-03-02 14:22:00,23.2,20.5,29.94,WNW,294,6.0,11.0,89,0.00,,,0.00,meteohub,2013-03-02 19:22:00,
2013-03-02 14:27:00,23.2,20.5,29.94,WNW,288,7.0,10.0,89,0.00,,,0.00,meteohub,2013-03-02 19:27:00,
2013-03-02 14:32:00,23.2,20.5,29.94,WNW,284,5.0,10.0,89,0.00,,,0.00,meteohub,2013-03-02 19:32:00,
2013-03-02 14:37:00,23.4,20.7,29.94,WNW,287,8.0,10.0,89,0.00,,,0.00,meteohub,2013-03-02 19:37:00,
2013-03-02 14:42:00,23.4,20.7,29.94,WNW,296,8.0,10.0,89,0.00,,,0.00,meteohub,2013-03-02 19:42:00,
2013-03-02 14:47:00,23.4,20.7,29.94,NW,304,10.0,10.0,89,0.00,,,0.00,meteohub,2013-03-02 19:47:00,
2013-03-02 14:52:00,23.4,20.7,29.94,WNW,298,9.0,12.0,89,0.00,,,0.00,meteohub,2013-03-02 19:52:00,
2013-03-02 14:57:00,23.5,20.8,29.94,WNW,291,9.0,12.0,89,0.00,,,0.00,meteohub,2013-03-02 19:57:00,
2013-03-02 15:02:00,23.5,20.8,29.94,WNW,286,10.0,12.0,89,0.00,,,0.00,meteohub,2013-03-02 20:02:00,
2013-03-02 15:07:00,23.5,20.8,29.94,WNW,291,7.0,12.0,89,0.00,,,0.00,meteohub,2013-03-02 20:07:00,
2013-03-02 15:12:00,23.5,20.5,29.94,WNW,298,5.0,12.0,88,0.00,,,0.00,meteohub,2013-03-02 20:12:00,
2013-03-02 15:17:00,23.7,21.0,29.94,WNW,300,6.0,12.0,89,0.00,,,0.00,meteohub,2013-03-02 20:17:00,
2013-03-02 15:23:00,23.7,21.0,29.94,West,281,9.0,11.0,89,0.00,,,0.00,meteohub,2013-03-02 20:23:00,
2013-03-02 15:28:00,23.7,21.0,29.94,WNW,288,8.0,12.0,89,0.00,,,0.00,meteohub,2013-03-02 20:28:00,
2013-03-02 15:33:00,23.7,21.0,29.94,WNW,297,11.0,12.0,89,0.00,,,0.00,meteohub,2013-03-02 20:33:00,
2013-03-02 15:38:00,23.7,21.2,29.94,WNW,300,7.0,12.0,90,0.00,,,0.00,meteohub,2013-03-02 20:38:00,
2013-03-02 15:43:00,24.1,21.6,29.94,WNW,282,9.0,12.0,90,0.00,,,0.00,meteohub,2013-03-02 20:43:00,
2013-03-02 15:48:00,24.1,21.6,29.94,West,278,10.0,11.0,90,0.00,,,0.00,meteohub,2013-03-02 20:48:00,
2013-03-02 15:53:00,24.1,21.6,29.94,WNW,283,12.0,12.0,90,0.00,,,0.00,meteohub,2013-03-02 20:53:00,
2013-03-02 15:58:00,24.1,21.6,29.94,WNW,294,6.0,13.0,90,0.00,,,0.00,meteohub,2013-03-02 20:58:00,
2013-03-02 16:03:00,24.3,22.1,29.94,WNW,292,11.0,13.0,91,0.00,,,0.00,meteohub,2013-03-02 21:03:00,
2013-03-02 16:08:00,24.3,22.1,29.94,WNW,288,10.0,13.0,91,0.00,,,0.00,meteohub,2013-03-02 21:08:00,
2013-03-02 16:13:00,24.3,21.7,29.94,WNW,294,10.0,12.0,90,0.00,,,0.00,meteohub,2013-03-02 21:13:00,
2013-03-02 16:19:00,24.4,21.9,29.94,WNW,290,7.0,13.0,90,0.00,,,0.00,meteohub,2013-03-02 21:19:00,
2013-03-02 16:24:00,24.4,21.9,29.94,WNW,291,8.0,13.0,90,0.00,,,0.00,meteohub,2013-03-02 21:24:00,
2013-03-02 16:29:00,24.6,22.1,29.94,WNW,295,5.0,13.0,90,0.00,,,0.00,meteohub,2013-03-02 21:29:00,
2013-03-02 16:34:00,24.4,21.9,29.94,WNW,290,9.0,12.0,90,0.00,,,0.00,meteohub,2013-03-02 21:34:00,
2013-03-02 16:39:00,24.4,21.9,29.94,WNW,294,10.0,12.0,90,0.00,,,0.00,meteohub,2013-03-02 21:39:00,
2013-03-02 16:44:00,24.4,21.9,29.94,WNW,293,8.0,12.0,90,0.00,,,0.00,meteohub,2013-03-02 21:44:00,
2013-03-02 16:49:00,24.4,21.9,29.94,WNW,284,7.0,12.0,90,0.00,,,0.00,meteohub,2013-03-02 21:49:00,
2013-03-02 16:54:00,24.6,22.5,29.94,WNW,292,7.0,11.0,91,0.00,,,0.00,meteohub,2013-03-02 21:54:00,
2013-03-02 16:59:00,24.4,22.3,29.94,WNW,285,9.0,10.0,91,0.00,,,0.00,meteohub,2013-03-02 21:59:00,
2013-03-02 17:04:00,24.6,22.5,29.94,West,281,10.0,11.0,91,0.00,,,0.00,meteohub,2013-03-02 22:04:00,
2013-03-02 17:09:00,24.6,22.6,29.94,WNW,290,9.0,11.0,92,0.00,,,0.00,meteohub,2013-03-02 22:09:00,
2013-03-02 17:15:00,24.6,22.6,29.94,West,279,7.0,11.0,92,0.00,,,0.00,meteohub,2013-03-02 22:15:00,
2013-03-02 17:20:00,24.6,22.6,29.94,WNW,284,7.0,12.0,92,0.00,,,0.00,meteohub,2013-03-02 22:20:00,
2013-03-02 17:25:00,24.8,22.8,29.94,WNW,289,8.0,10.0,92,0.00,,,0.00,meteohub,2013-03-02 22:25:00,
2013-03-02 17:30:00,24.8,22.8,29.94,WNW,289,7.0,10.0,92,0.00,,,0.00,meteohub,2013-03-02 22:30:00,
2013-03-02 17:35:00,25.0,23.0,29.94,WNW,284,7.0,10.0,92,0.00,,,0.00,meteohub,2013-03-02 22:35:00,
2013-03-02 17:40:00,25.0,23.0,29.94,WNW,288,10.0,12.0,92,0.00,,,0.00,meteohub,2013-03-02 22:40:00,
2013-03-02 17:45:00,25.2,23.2,29.94,WNW,289,11.0,12.0,92,0.00,,,0.00,meteohub,2013-03-02 22:45:00,
2013-03-02 17:50:00,25.2,23.2,29.94,WNW,290,9.0,12.0,92,0.00,,,0.00,meteohub,2013-03-02 22:50:00,
2013-03-02 17:55:00,25.2,23.2,29.94,WNW,287,9.0,12.0,92,0.00,,,0.00,meteohub,2013-03-02 22:55:00,
2013-03-02 18:00:00,25.2,23.2,29.94,WNW,288,9.0,12.0,92,0.00,,,0.00,meteohub,2013-03-02 23:00:00,
2013-03-02 18:05:00,25.3,23.5,29.94,WNW,296,9.0,11.0,93,0.00,,,0.00,meteohub,2013-03-02 23:05:00,
2013-03-02 18:10:00,25.3,23.5,29.94,WNW,294,10.0,12.0,93,0.00,,,0.00,meteohub,2013-03-02 23:10:00,
2013-03-02 18:16:00,25.3,23.5,29.94,WNW,292,10.0,12.0,93,0.00,,,0.00,meteohub,2013-03-02 23:16:00,
2013-03-02 18:21:00,25.5,23.7,29.94,WNW,299,11.0,12.0,93,0.00,,,0.00,meteohub,2013-03-02 23:21:00,
2013-03-02 18:26:00,25.5,23.7,29.94,WNW,296,9.0,11.0,93,0.00,,,0.00,meteohub,2013-03-02 23:26:00,
2013-03-02 18:31:00,25.5,23.7,29.94,WNW,296,7.0,13.0,93,0.00,,,0.00,meteohub,2013-03-02 23:31:00,
2013-03-02 18:36:00,25.5,23.7,29.94,WNW,293,11.0,13.0,93,0.00,,,0.00,meteohub,2013-03-02 23:36:00,
2013-03-02 18:41:00,25.7,23.9,29.94,WNW,292,13.0,14.0,93,0.00,,,0.00,meteohub,2013-03-02 23:41:00,
2013-03-02 18:46:00,25.7,23.9,29.94,WNW,291,10.0,14.0,93,0.00,,,0.00,meteohub,2013-03-02 23:46:00,
2013-03-02 18:51:00,25.9,24.1,29.94,NW,312,11.0,14.0,93,0.00,,,0.00,meteohub,2013-03-02 23:51:00,
2013-03-02 18:56:00,25.9,24.1,29.94,NW,305,11.0,13.0,93,0.00,,,0.00,meteohub,2013-03-02 23:56:00,
2013-03-02 19:01:00,25.9,24.1,29.94,NW,304,7.0,13.0,93,0.00,,,0.00,meteohub,2013-03-03 00:01:00,
2013-03-02 19:06:00,25.9,24.1,29.94,NW,308,10.0,13.0,93,0.00,,,0.00,meteohub,2013-03-03 00:06:00,
2013-03-02 19:11:00,25.9,23.9,29.94,NW,308,7.0,13.0,92,0.00,,,0.00,meteohub,2013-03-03 00:11:00,
2013-03-02 19:17:00,26.1,24.1,29.94,WNW,302,9.0,12.0,92,0.00,,,0.00,meteohub,2013-03-03 00:17:00,
2013-03-02 19:22:00,26.1,24.1,29.94,NW,310,10.0,12.0,92,0.00,,,0.00,meteohub,2013-03-03 00:22:00,
2013-03-02 19:27:00,26.1,24.1,29.94,WNW,302,11.0,13.0,92,0.00,,,0.00,meteohub,2013-03-03 00:27:00,
2013-03-02 19:32:00,26.1,24.1,29.94,NW,306,12.0,14.0,92,0.00,,,0.00,meteohub,2013-03-03 00:32:00,
2013-03-02 19:37:00,26.1,24.1,29.94,NW,304,11.0,15.0,92,0.00,,,0.00,meteohub,2013-03-03 00:37:00,
2013-03-02 19:42:00,26.1,24.1,29.94,NW,313,11.0,15.0,92,0.00,,,0.00,meteohub,2013-03-03 00:42:00,
2013-03-02 19:47:00,26.1,24.1,29.94,NW,306,10.0,15.0,92,0.00,,,0.00,meteohub,2013-03-03 00:47:00,
2013-03-02 19:52:00,26.2,24.3,29.94,NW,307,9.0,15.0,92,0.00,,,0.00,meteohub,2013-03-03 00:52:00,
2013-03-02 19:57:00,26.2,24.3,29.94,NW,304,8.0,15.0,92,0.00,,,0.00,meteohub,2013-03-03 00:57:00,
2013-03-02 20:02:00,26.2,24.3,29.94,NW,307,10.0,15.0,92,0.00,,,0.00,meteohub,2013-03-03 01:02:00,
2013-03-02 20:07:00,26.2,24.3,29.94,NW,317,12.0,13.0,92,0.00,,,0.00,meteohub,2013-03-03 01:07:00,
2013-03-02 20:12:00,26.2,24.3,29.94,NW,306,12.0,15.0,92,0.00,,,0.00,meteohub,2013-03-03 01:12:00,
2013-03-02 20:17:00,26.4,24.4,29.94,NW,309,12.0,15.0,92,0.00,,,0.00,meteohub,2013-03-03 01:17:00,
2013-03-02 20:22:00,26.6,24.6,29.94,NW,316,11.0,15.0,92,0.00,,,0.00,meteohub,2013-03-03 01:22:00,
2013-03-02 20:28:00,26.6,26.6,29.94,NW,319,12.0,15.0,100,0.00,,,0.00,meteohub,2013-03-03 01:28:00,
2013-03-02 20:33:00,26.6,24.3,29.94,NNW,330,9.0,16.0,91,0.00,,,0.00,meteohub,2013-03-03 01:33:00,
2013-03-02 20:38:00,26.8,24.4,29.94,NNW,329,13.0,16.0,91,0.00,,,0.00,meteohub,2013-03-03 01:38:00,
2013-03-02 20:43:00,26.6,24.3,29.95,NNW,333,17.0,17.0,91,0.00,,,0.00,meteohub,2013-03-03 01:43:00,
2013-03-02 20:48:00,26.4,23.9,29.95,NNW,338,16.0,18.0,90,0.00,,,0.00,meteohub,2013-03-03 01:48:00,
2013-03-02 20:53:00,26.4,23.9,29.95,NNW,333,13.0,19.0,90,0.00,,,0.00,meteohub,2013-03-03 01:53:00,
2013-03-02 20:58:00,26.2,23.7,29.95,NW,323,15.0,20.0,90,0.00,,,0.00,meteohub,2013-03-03 01:58:00,
2013-03-02 21:03:00,26.2,23.7,29.95,NNW,332,15.0,20.0,90,0.00,,,0.00,meteohub,2013-03-03 02:03:00,
2013-03-02 21:08:00,26.2,23.7,29.95,NNW,348,14.0,20.0,90,0.00,,,0.00,meteohub,2013-03-03 02:08:00,
2013-03-02 21:13:00,26.2,23.7,29.95,North,355,15.0,18.0,90,0.00,,,0.00,meteohub,2013-03-03 02:13:00,
2013-03-02 21:18:00,26.2,23.4,29.96,NNW,347,15.0,18.0,89,0.00,,,0.00,meteohub,2013-03-03 02:18:00,
2013-03-02 21:23:00,26.2,23.4,29.95,NNW,336,15.0,19.0,89,0.00,,,0.00,meteohub,2013-03-03 02:23:00,
2013-03-02 21:28:00,26.1,23.2,29.95,North,355,14.0,19.0,89,0.00,,,0.00,meteohub,2013-03-03 02:28:00,
2013-03-02 21:33:00,26.1,23.2,29.95,North,0,16.0,19.0,89,0.00,,,0.00,meteohub,2013-03-03 02:33:00,
2013-03-02 21:38:00,25.9,23.0,29.95,NNW,348,19.0,19.0,89,0.00,,,0.00,meteohub,2013-03-03 02:38:00,
2013-03-02 21:43:00,25.9,23.0,29.95,North,355,15.0,21.0,89,0.00,,,0.00,meteohub,2013-03-03 02:43:00,
2013-03-02 21:48:00,25.9,23.0,29.95,NNW,342,14.0,21.0,89,0.00,,,0.00,meteohub,2013-03-03 02:48:00,
2013-03-02 21:53:00,25.9,23.0,29.95,NNW,348,17.0,21.0,89,0.00,,,0.00,meteohub,2013-03-03 02:53:00,
2013-03-02 21:58:00,25.7,23.0,29.95,North,5,16.0,21.0,89,0.00,,,0.00,meteohub,2013-03-03 02:58:00,
2013-03-02 22:04:00,25.7,22.6,29.95,North,355,14.0,21.0,88,0.00,,,0.00,meteohub,2013-03-03 03:04:00,
2013-03-02 22:09:00,25.5,22.8,29.95,North,350,16.0,19.0,89,0.00,,,0.00,meteohub,2013-03-03 03:09:00,
2013-03-02 22:14:00,25.7,23.0,29.95,NNW,343,14.0,19.0,89,0.00,,,0.00,meteohub,2013-03-03 03:14:00,
2013-03-02 22:19:00,25.5,22.8,29.95,NNW,342,18.0,19.0,89,0.00,,,0.00,meteohub,2013-03-03 03:19:00,
2013-03-02 22:24:00,25.3,22.3,29.95,NNW,338,17.0,22.0,88,0.00,,,0.00,meteohub,2013-03-03 03:24:00,
2013-03-02 22:29:00,25.3,22.3,29.95,North,350,18.0,22.0,88,0.00,,,0.00,meteohub,2013-03-03 03:29:00,
2013-03-02 22:34:00,25.2,22.1,29.95,NNW,346,17.0,22.0,88,0.00,,,0.00,meteohub,2013-03-03 03:34:00,
2013-03-02 22:39:00,25.2,22.1,29.94,NNW,338,16.0,22.0,88,0.00,,,0.00,meteohub,2013-03-03 03:39:00,
2013-03-02 22:44:00,25.0,21.9,29.95,North,349,16.0,22.0,88,0.00,,,0.00,meteohub,2013-03-03 03:44:00,
2013-03-02 22:49:00,25.0,21.7,29.95,NNW,344,16.0,22.0,87,0.00,,,0.00,meteohub,2013-03-03 03:49:00,
2013-03-02 22:54:00,24.8,21.6,29.95,NNW,341,16.0,21.0,87,0.00,,,0.00,meteohub,2013-03-03 03:54:00,
2013-03-02 22:59:00,25.0,21.9,29.95,North,355,16.0,21.0,88,0.00,,,0.00,meteohub,2013-03-03 03:59:00,
2013-03-02 23:04:00,24.8,21.7,29.95,North,350,15.0,20.0,88,0.00,,,0.00,meteohub,2013-03-03 04:04:00,
2013-03-02 23:09:00,24.6,21.6,29.95,NNW,348,18.0,19.0,88,0.00,,,0.00,meteohub,2013-03-03 04:09:00,
2013-03-02 23:15:00,24.6,21.4,29.95,North,0,21.0,21.0,87,0.00,,,0.00,meteohub,2013-03-03 04:15:00,
2013-03-02 23:20:00,24.6,21.4,29.95,North,355,17.0,21.0,87,0.00,,,0.00,meteohub,2013-03-03 04:20:00,
2013-03-02 23:25:00,24.8,21.7,29.95,North,355,17.0,21.0,88,0.00,,,0.00,meteohub,2013-03-03 04:25:00,
2013-03-02 23:30:00,24.6,21.6,29.95,NNW,336,18.0,20.0,88,0.00,,,0.00,meteohub,2013-03-03 04:30:00,
2013-03-02 23:35:00,24.6,21.4,29.95,NNW,345,17.0,20.0,87,0.00,,,0.00,meteohub,2013-03-03 04:35:00,
2013-03-02 23:40:00,24.6,21.4,29.96,North,355,21.0,21.0,87,0.00,,,0.00,meteohub,2013-03-03 04:40:00,
2013-03-02 23:45:00,24.6,21.4,29.95,North,5,21.0,21.0,87,0.00,,,0.00,meteohub,2013-03-03 04:45:00,
2013-03-02 23:50:00,24.6,21.4,29.95,North,355,19.0,22.0,87,0.00,,,0.00,meteohub,2013-03-03 04:50:00,
2013-03-02 23:55:00,24.4,21.2,29.95,NNW,331,17.0,22.0,87,0.00,,,0.00,meteohub,2013-03-03 04:55:00,